罗盘
风向 的 风向 的 风向 到 风向 300° Aurillac Airport 15/33
风: 8 kt, 3 beaufort

7 kt

4 kt
改变
0 2.000 4.000 6.000 8.000 10.000
SCT 2.500 ft
SCT 3.200 ft
BKN 6.000 ft
METAR LFCK 251130Z AUTO 30008KT 270V350 9999 SCT025 SCT032 BKN060 16/10 Q1017 NOSIG

METAR Aurillac Airport - LFLW/AUR

Aurillac Airport是Aurillac,法国中的中型机场。 该机场有一条跑道: 15/33. 该领域的国际民航组织标志是LFLW 它的国际航空运输协会代码是AUR.

这份报告是针对2022年9月25日 13:30, 当地时间在Castres-Mazamet Airport进行的。

机场观察

风向为300°,速度为8 kt。 风向在270°和350°之间变化。

可见度为10 km 或者更多。

有疏云,零星散落的云朵在2.500 ft的高度, 疏云,零星散落的云朵在3.200 ft的高度 和 碎云在6.000 ft的高度。 破损或更高的上限为6.000 ft。

温度和风寒是16 °C。 露点为10 °C,相对湿度为68%。 海平面上的气压为1017 hPa (QNH)。

白天

今天,太阳从07:41升起,在19:42降落。 这适用于Aurillac Airport,世界夏令时可能有所不同。 当地时间与世界标准时间之间的时差为+2 小时。 夏令时目前正在进行中。

公司介绍

在这个机场,你可以找到飞行俱乐部。 本场上唯一已知的公司是Aéroclub du Cantal。

体会

到Vliegles.nl去找飞行课程,跳伞和其他飞行体验。 浏览页面,了解Aurillac Airport附近所有可用的活动。 你也可以使用搜索功能来寻找你所在地附近的特定飞行课程、跳伞或其他飞行体验。

跑道

Id 标题 侧风 逆风 侧风 %
15/33 150°-330° 4 kt 7 kt 50 %

逆风成分最大的方向会被突出显示,并用于横风计算。 这并不一定意味着这个方向在使用。

乌云

2.500 ft SCT 疏云,零星散落的云朵
3.200 ft SCT 疏云,零星散落的云朵
6.000 ft BKN 碎云

温度 & 天气

温度 16 °C
露点 10 °C
相对湿度 68%
Kp-index 2  

白天

日出
07:41
中午
13:42
日落
19:43 (6h 04m)

小工具

你想在你的网站上有一个关于Aurillac Airport的当前航空天气(METAR)的小部件吗?

</> 显示HTML代码

我们和第三方通过cookies跟踪您在我们网站上的上网行为。如果您继续,我们认为您同意我们的cookie政策。 了解更多